sensor_id;sensor_type;location;lat;lon;timestamp;P1;durP1;ratioP1;P2;durP2;ratioP2
66826;SDS011;53727;45.242;19.796;2022-09-09T00:02:05;0.28;;;0.28;;
66826;SDS011;53727;45.242;19.796;2022-09-09T00:04:34;0.00;;;0.00;;
66826;SDS011;53727;45.242;19.796;2022-09-09T00:09:52;0.00;;;0.00;;
66826;SDS011;53727;45.242;19.796;2022-09-09T00:22:43;0.77;;;0.63;;
66826;SDS011;53727;45.242;19.796;2022-09-09T00:25:26;0.68;;;0.30;;
66826;SDS011;53727;45.242;19.796;2022-09-09T00:27:59;0.00;;;0.00;;
66826;SDS011;53727;45.242;19.796;2022-09-09T00:30:26;0.08;;;0.08;;
66826;SDS011;53727;45.242;19.796;2022-09-09T00:33:00;0.05;;;0.05;;
66826;SDS011;53727;45.242;19.796;2022-09-09T00:35:37;0.03;;;0.03;;
66826;SDS011;53727;45.242;19.796;2022-09-09T00:38:24;0.00;;;0.00;;
66826;SDS011;53727;45.242;19.796;2022-09-09T00:43:31;0.10;;;0.10;;
66826;SDS011;53727;45.242;19.796;2022-09-09T00:49:13;0.10;;;0.10;;
66826;SDS011;53727;45.242;19.796;2022-09-09T00:57:29;0.93;;;0.35;;
66826;SDS011;53727;45.242;19.796;2022-09-09T01:00:18;0.20;;;0.20;;
66826;SDS011;53727;45.242;19.796;2022-09-09T01:11:05;0.20;;;0.20;;
66826;SDS011;53727;45.242;19.796;2022-09-09T01:13:45;0.75;;;0.00;;
66826;SDS011;53727;45.242;19.796;2022-09-09T01:16:14;0.10;;;0.10;;
66826;SDS011;53727;45.242;19.796;2022-09-09T01:18:45;0.20;;;0.10;;
66826;SDS011;53727;45.242;19.796;2022-09-09T01:23:55;0.00;;;0.00;;
66826;SDS011;53727;45.242;19.796;2022-09-09T01:26:44;0.28;;;0.10;;
66826;SDS011;53727;45.242;19.796;2022-09-09T01:29:12;0.00;;;0.00;;
66826;SDS011;53727;45.242;19.796;2022-09-09T01:34:20;0.00;;;0.00;;
66826;SDS011;53727;45.242;19.796;2022-09-09T01:39:25;0.00;;;0.00;;
66826;SDS011;53727;45.242;19.796;2022-09-09T01:41:52;0.08;;;0.05;;
66826;SDS011;53727;45.242;19.796;2022-09-09T01:44:19;0.00;;;0.00;;
66826;SDS011;53727;45.242;19.796;2022-09-09T01:46:45;0.15;;;0.00;;
66826;SDS011;53727;45.242;19.796;2022-09-09T01:49:11;0.85;;;0.17;;
66826;SDS011;53727;45.242;19.796;2022-09-09T01:51:37;0.10;;;0.10;;
66826;SDS011;53727;45.242;19.796;2022-09-09T01:54:05;0.30;;;0.22;;
66826;SDS011;53727;45.242;19.796;2022-09-09T01:59:45;0.00;;;0.00;;
66826;SDS011;53727;45.242;19.796;2022-09-09T02:02:30;0.00;;;0.00;;
66826;SDS011;53727;45.242;19.796;2022-09-09T02:07:56;0.00;;;0.00;;
66826;SDS011;53727;45.242;19.796;2022-09-09T02:10:45;0.10;;;0.10;;
66826;SDS011;53727;45.242;19.796;2022-09-09T02:13:19;0.15;;;0.03;;
66826;SDS011;53727;45.242;19.796;2022-09-09T02:18:25;0.75;;;0.55;;
66826;SDS011;53727;45.242;19.796;2022-09-09T02:20:56;0.15;;;0.15;;
66826;SDS011;53727;45.242;19.796;2022-09-09T02:23:23;0.00;;;0.00;;
66826;SDS011;53727;45.242;19.796;2022-09-09T02:25:49;0.10;;;0.10;;
66826;SDS011;53727;45.242;19.796;2022-09-09T02:28:17;0.10;;;0.10;;
66826;SDS011;53727;45.242;19.796;2022-09-09T02:30:46;0.20;;;0.15;;
66826;SDS011;53727;45.242;19.796;2022-09-09T02:33:18;1.92;;;0.35;;
66826;SDS011;53727;45.242;19.796;2022-09-09T02:35:44;0.20;;;0.15;;
66826;SDS011;53727;45.242;19.796;2022-09-09T02:38:12;0.00;;;0.00;;
66826;SDS011;53727;45.242;19.796;2022-09-09T02:40:40;0.00;;;0.00;;
66826;SDS011;53727;45.242;19.796;2022-09-09T02:43:06;0.00;;;0.00;;
66826;SDS011;53727;45.242;19.796;2022-09-09T02:45:36;0.13;;;0.03;;
66826;SDS011;53727;45.242;19.796;2022-09-09T02:56:30;0.00;;;0.00;;
66826;SDS011;53727;45.242;19.796;2022-09-09T02:59:03;0.00;;;0.00;;
66826;SDS011;53727;45.242;19.796;2022-09-09T03:01:29;0.00;;;0.00;;
66826;SDS011;53727;45.242;19.796;2022-09-09T03:03:56;0.00;;;0.00;;
66826;SDS011;53727;45.242;19.796;2022-09-09T03:06:22;0.10;;;0.10;;
66826;SDS011;53727;45.242;19.796;2022-09-09T03:08:48;0.73;;;0.22;;
66826;SDS011;53727;45.242;19.796;2022-09-09T03:11:15;0.00;;;0.00;;
66826;SDS011;53727;45.242;19.796;2022-09-09T03:13:41;0.50;;;0.00;;
66826;SDS011;53727;45.242;19.796;2022-09-09T03:16:07;0.15;;;0.10;;
66826;SDS011;53727;45.242;19.796;2022-09-09T03:18:32;0.13;;;0.00;;
66826;SDS011;53727;45.242;19.796;2022-09-09T03:20:59;0.00;;;0.00;;
66826;SDS011;53727;45.242;19.796;2022-09-09T03:23:25;0.10;;;0.00;;
66826;SDS011;53727;45.242;19.796;2022-09-09T03:25:51;0.10;;;0.10;;
66826;SDS011;53727;45.242;19.796;2022-09-09T03:28:19;1.75;;;0.38;;
66826;SDS011;53727;45.242;19.796;2022-09-09T03:30:45;0.00;;;0.00;;
66826;SDS011;53727;45.242;19.796;2022-09-09T03:33:11;0.00;;;0.00;;
66826;SDS011;53727;45.242;19.796;2022-09-09T03:35:37;0.10;;;0.00;;
66826;SDS011;53727;45.242;19.796;2022-09-09T03:38:04;0.00;;;0.00;;
66826;SDS011;53727;45.242;19.796;2022-09-09T03:40:30;0.00;;;0.00;;
66826;SDS011;53727;45.242;19.796;2022-09-09T03:42:56;0.00;;;0.00;;
66826;SDS011;53727;45.242;19.796;2022-09-09T03:45:21;0.20;;;0.20;;
66826;SDS011;53727;45.242;19.796;2022-09-09T03:47:47;1.73;;;0.28;;
66826;SDS011;53727;45.242;19.796;2022-09-09T03:50:14;259.13;;;17.25;;
66826;SDS011;53727;45.242;19.796;2022-09-09T03:52:40;17.88;;;3.53;;
66826;SDS011;53727;45.242;19.796;2022-09-09T03:55:07;8.25;;;3.50;;
66826;SDS011;53727;45.242;19.796;2022-09-09T03:57:34;20.95;;;3.85;;
66826;SDS011;53727;45.242;19.796;2022-09-09T04:00:02;7.60;;;3.47;;
66826;SDS011;53727;45.242;19.796;2022-09-09T04:02:29;7.30;;;2.80;;
66826;SDS011;53727;45.242;19.796;2022-09-09T04:04:55;5.90;;;3.05;;
66826;SDS011;53727;45.242;19.796;2022-09-09T04:07:21;26.33;;;4.85;;
66826;SDS011;53727;45.242;19.796;2022-09-09T04:09:47;8.05;;;3.80;;
66826;SDS011;53727;45.242;19.796;2022-09-09T04:12:13;7.80;;;3.40;;
66826;SDS011;53727;45.242;19.796;2022-09-09T04:14:39;5.45;;;3.63;;
66826;SDS011;53727;45.242;19.796;2022-09-09T04:17:05;7.28;;;3.05;;
66826;SDS011;53727;45.242;19.796;2022-09-09T04:19:32;8.43;;;3.78;;
66826;SDS011;53727;45.242;19.796;2022-09-09T04:21:58;5.40;;;2.63;;
66826;SDS011;53727;45.242;19.796;2022-09-09T04:24:24;7.03;;;3.60;;
66826;SDS011;53727;45.242;19.796;2022-09-09T04:26:52;15.88;;;4.25;;
66826;SDS011;53727;45.242;19.796;2022-09-09T04:29:18;12.65;;;5.25;;
66826;SDS011;53727;45.242;19.796;2022-09-09T04:31:44;9.30;;;4.38;;
66826;SDS011;53727;45.242;19.796;2022-09-09T04:34:10;9.48;;;4.15;;
66826;SDS011;53727;45.242;19.796;2022-09-09T04:36:36;11.10;;;4.03;;
66826;SDS011;53727;45.242;19.796;2022-09-09T04:39:02;11.23;;;4.25;;
66826;SDS011;53727;45.242;19.796;2022-09-09T04:41:28;9.70;;;3.80;;
66826;SDS011;53727;45.242;19.796;2022-09-09T04:43:56;8.38;;;3.38;;
66826;SDS011;53727;45.242;19.796;2022-09-09T04:46:23;7.43;;;3.50;;
66826;SDS011;53727;45.242;19.796;2022-09-09T04:48:49;5.22;;;2.65;;
66826;SDS011;53727;45.242;19.796;2022-09-09T04:51:17;5.70;;;3.53;;
66826;SDS011;53727;45.242;19.796;2022-09-09T04:53:43;9.55;;;4.10;;
66826;SDS011;53727;45.242;19.796;2022-09-09T04:56:11;7.32;;;3.97;;
66826;SDS011;53727;45.242;19.796;2022-09-09T04:58:38;10.90;;;4.53;;
66826;SDS011;53727;45.242;19.796;2022-09-09T05:01:08;10.48;;;4.50;;
66826;SDS011;53727;45.242;19.796;2022-09-09T05:03:35;11.10;;;4.95;;
66826;SDS011;53727;45.242;19.796;2022-09-09T05:06:04;9.77;;;3.78;;
66826;SDS011;53727;45.242;19.796;2022-09-09T05:08:31;8.57;;;4.00;;
66826;SDS011;53727;45.242;19.796;2022-09-09T05:10:57;8.75;;;3.40;;
66826;SDS011;53727;45.242;19.796;2022-09-09T05:13:25;12.18;;;4.38;;
66826;SDS011;53727;45.242;19.796;2022-09-09T05:15:54;8.57;;;4.68;;
66826;SDS011;53727;45.242;19.796;2022-09-09T05:18:20;5.72;;;4.28;;
66826;SDS011;53727;45.242;19.796;2022-09-09T05:20:47;14.45;;;5.57;;
66826;SDS011;53727;45.242;19.796;2022-09-09T05:23:13;12.25;;;3.83;;
66826;SDS011;53727;45.242;19.796;2022-09-09T05:25:39;7.43;;;4.30;;
66826;SDS011;53727;45.242;19.796;2022-09-09T05:28:06;8.05;;;4.00;;
66826;SDS011;53727;45.242;19.796;2022-09-09T05:30:33;15.65;;;4.05;;
66826;SDS011;53727;45.242;19.796;2022-09-09T05:32:59;10.02;;;4.00;;
66826;SDS011;53727;45.242;19.796;2022-09-09T05:35:25;9.68;;;4.03;;
66826;SDS011;53727;45.242;19.796;2022-09-09T05:37:51;7.07;;;4.43;;
66826;SDS011;53727;45.242;19.796;2022-09-09T05:40:17;10.20;;;3.50;;
66826;SDS011;53727;45.242;19.796;2022-09-09T05:42:43;4.43;;;2.97;;
66826;SDS011;53727;45.242;19.796;2022-09-09T05:45:10;5.20;;;3.20;;
66826;SDS011;53727;45.242;19.796;2022-09-09T05:47:36;5.82;;;3.25;;
66826;SDS011;53727;45.242;19.796;2022-09-09T05:50:03;6.82;;;3.20;;
66826;SDS011;53727;45.242;19.796;2022-09-09T05:52:29;7.00;;;3.22;;
66826;SDS011;53727;45.242;19.796;2022-09-09T05:54:55;6.70;;;3.28;;
66826;SDS011;53727;45.242;19.796;2022-09-09T05:57:22;6.47;;;3.90;;
66826;SDS011;53727;45.242;19.796;2022-09-09T05:59:48;43.08;;;5.20;;
66826;SDS011;53727;45.242;19.796;2022-09-09T06:02:14;57.72;;;5.75;;
66826;SDS011;53727;45.242;19.796;2022-09-09T06:04:41;3.50;;;1.58;;
66826;SDS011;53727;45.242;19.796;2022-09-09T06:07:07;3.15;;;1.60;;
66826;SDS011;53727;45.242;19.796;2022-09-09T06:09:33;5.38;;;1.60;;
66826;SDS011;53727;45.242;19.796;2022-09-09T06:11:59;2.03;;;1.40;;
66826;SDS011;53727;45.242;19.796;2022-09-09T06:14:25;13.98;;;2.33;;
66826;SDS011;53727;45.242;19.796;2022-09-09T06:16:52;4.60;;;1.70;;
66826;SDS011;53727;45.242;19.796;2022-09-09T06:19:18;3.17;;;2.10;;
66826;SDS011;53727;45.242;19.796;2022-09-09T06:21:45;3.05;;;1.88;;
66826;SDS011;53727;45.242;19.796;2022-09-09T06:24:12;3.15;;;1.75;;
66826;SDS011;53727;45.242;19.796;2022-09-09T06:26:42;3.05;;;2.08;;
66826;SDS011;53727;45.242;19.796;2022-09-09T06:29:08;3.05;;;1.73;;
66826;SDS011;53727;45.242;19.796;2022-09-09T06:31:34;2.55;;;2.20;;
66826;SDS011;53727;45.242;19.796;2022-09-09T06:34:02;12.25;;;2.50;;
66826;SDS011;53727;45.242;19.796;2022-09-09T06:36:29;4.07;;;2.53;;
66826;SDS011;53727;45.242;19.796;2022-09-09T06:38:56;4.30;;;2.17;;
66826;SDS011;53727;45.242;19.796;2022-09-09T06:41:22;3.20;;;2.17;;
66826;SDS011;53727;45.242;19.796;2022-09-09T06:43:49;2.67;;;1.67;;
66826;SDS011;53727;45.242;19.796;2022-09-09T06:46:15;4.82;;;2.47;;
66826;SDS011;53727;45.242;19.796;2022-09-09T06:48:43;3.75;;;2.35;;
66826;SDS011;53727;45.242;19.796;2022-09-09T06:51:11;5.47;;;2.38;;
66826;SDS011;53727;45.242;19.796;2022-09-09T06:53:37;5.50;;;2.08;;
66826;SDS011;53727;45.242;19.796;2022-09-09T06:58:37;5.10;;;1.83;;
66826;SDS011;53727;45.242;19.796;2022-09-09T07:01:08;5.65;;;2.85;;
66826;SDS011;53727;45.242;19.796;2022-09-09T07:03:34;5.43;;;2.10;;
66826;SDS011;53727;45.242;19.796;2022-09-09T07:06:01;3.15;;;1.95;;
66826;SDS011;53727;45.242;19.796;2022-09-09T07:08:26;7.07;;;2.50;;
66826;SDS011;53727;45.242;19.796;2022-09-09T07:10:53;4.93;;;1.90;;
66826;SDS011;53727;45.242;19.796;2022-09-09T07:13:25;5.05;;;2.42;;
66826;SDS011;53727;45.242;19.796;2022-09-09T07:15:52;3.55;;;2.38;;
66826;SDS011;53727;45.242;19.796;2022-09-09T07:18:18;4.18;;;2.10;;
66826;SDS011;53727;45.242;19.796;2022-09-09T07:20:54;5.30;;;2.10;;
66826;SDS011;53727;45.242;19.796;2022-09-09T07:23:22;4.28;;;2.20;;
66826;SDS011;53727;45.242;19.796;2022-09-09T07:25:48;5.93;;;2.25;;
66826;SDS011;53727;45.242;19.796;2022-09-09T07:28:15;17.55;;;2.55;;
66826;SDS011;53727;45.242;19.796;2022-09-09T07:30:41;62.75;;;7.97;;
66826;SDS011;53727;45.242;19.796;2022-09-09T07:33:07;29.55;;;6.88;;
66826;SDS011;53727;45.242;19.796;2022-09-09T07:35:34;43.47;;;5.93;;
66826;SDS011;53727;45.242;19.796;2022-09-09T07:38:02;12.50;;;4.13;;
66826;SDS011;53727;45.242;19.796;2022-09-09T07:40:32;3.85;;;3.38;;
66826;SDS011;53727;45.242;19.796;2022-09-09T07:42:59;8.25;;;3.42;;
66826;SDS011;53727;45.242;19.796;2022-09-09T07:45:25;7.80;;;3.88;;
66826;SDS011;53727;45.242;19.796;2022-09-09T07:47:53;8.88;;;4.05;;
66826;SDS011;53727;45.242;19.796;2022-09-09T07:50:21;7.95;;;4.50;;
66826;SDS011;53727;45.242;19.796;2022-09-09T07:52:48;5.03;;;3.15;;
66826;SDS011;53727;45.242;19.796;2022-09-09T07:55:14;5.13;;;3.70;;
66826;SDS011;53727;45.242;19.796;2022-09-09T07:57:40;113.75;;;10.27;;
66826;SDS011;53727;45.242;19.796;2022-09-09T08:00:06;20.00;;;6.00;;
66826;SDS011;53727;45.242;19.796;2022-09-09T08:02:32;49.58;;;6.95;;
66826;SDS011;53727;45.242;19.796;2022-09-09T08:04:58;83.35;;;6.63;;
66826;SDS011;53727;45.242;19.796;2022-09-09T08:07:24;42.83;;;5.90;;
66826;SDS011;53727;45.242;19.796;2022-09-09T08:09:50;71.97;;;5.72;;
66826;SDS011;53727;45.242;19.796;2022-09-09T08:12:16;7.88;;;1.92;;
66826;SDS011;53727;45.242;19.796;2022-09-09T08:14:41;12.10;;;1.45;;
66826;SDS011;53727;45.242;19.796;2022-09-09T08:17:07;1.42;;;0.80;;
66826;SDS011;53727;45.242;19.796;2022-09-09T08:19:33;5.88;;;0.80;;
66826;SDS011;53727;45.242;19.796;2022-09-09T08:22:00;2.13;;;0.77;;
66826;SDS011;53727;45.242;19.796;2022-09-09T08:24:27;1.60;;;0.85;;
66826;SDS011;53727;45.242;19.796;2022-09-09T08:26:53;1.92;;;0.85;;
66826;SDS011;53727;45.242;19.796;2022-09-09T08:29:19;1.52;;;0.70;;
66826;SDS011;53727;45.242;19.796;2022-09-09T08:31:46;19.60;;;1.20;;
66826;SDS011;53727;45.242;19.796;2022-09-09T08:34:13;0.85;;;0.73;;
66826;SDS011;53727;45.242;19.796;2022-09-09T08:36:43;1.42;;;0.75;;
66826;SDS011;53727;45.242;19.796;2022-09-09T08:39:10;1.33;;;0.80;;
66826;SDS011;53727;45.242;19.796;2022-09-09T08:52:37;2.50;;;0.90;;
66826;SDS011;53727;45.242;19.796;2022-09-09T08:57:51;0.88;;;0.60;;
66826;SDS011;53727;45.242;19.796;2022-09-09T09:00:19;1.45;;;0.88;;
66826;SDS011;53727;45.242;19.796;2022-09-09T09:05:47;0.73;;;0.63;;
66826;SDS011;53727;45.242;19.796;2022-09-09T09:08:17;1.27;;;0.70;;
66826;SDS011;53727;45.242;19.796;2022-09-09T09:10:53;1.27;;;0.70;;
66826;SDS011;53727;45.242;19.796;2022-09-09T09:18:59;0.82;;;0.55;;
66826;SDS011;53727;45.242;19.796;2022-09-09T09:27:34;0.95;;;0.60;;
66826;SDS011;53727;45.242;19.796;2022-09-09T09:30:23;1.30;;;0.50;;
66826;SDS011;53727;45.242;19.796;2022-09-09T09:32:57;2.42;;;0.65;;
66826;SDS011;53727;45.242;19.796;2022-09-09T09:35:33;1.67;;;0.82;;
66826;SDS011;53727;45.242;19.796;2022-09-09T09:37:59;0.60;;;0.40;;
66826;SDS011;53727;45.242;19.796;2022-09-09T09:40:26;1.30;;;0.60;;
66826;SDS011;53727;45.242;19.796;2022-09-09T09:42:56;1.30;;;0.80;;
66826;SDS011;53727;45.242;19.796;2022-09-09T09:45:42;1.33;;;0.60;;
66826;SDS011;53727;45.242;19.796;2022-09-09T09:48:12;1.58;;;0.85;;
66826;SDS011;53727;45.242;19.796;2022-09-09T09:53:20;1.65;;;0.82;;
66826;SDS011;53727;45.242;19.796;2022-09-09T09:55:55;1.23;;;0.80;;
66826;SDS011;53727;45.242;19.796;2022-09-09T09:58:30;1.20;;;0.70;;
66826;SDS011;53727;45.242;19.796;2022-09-09T10:01:00;1.40;;;0.70;;
66826;SDS011;53727;45.242;19.796;2022-09-09T10:03:27;0.63;;;0.40;;
66826;SDS011;53727;45.242;19.796;2022-09-09T10:05:57;0.88;;;0.60;;
66826;SDS011;53727;45.242;19.796;2022-09-09T10:08:23;0.77;;;0.38;;
66826;SDS011;53727;45.242;19.796;2022-09-09T10:16:34;0.80;;;0.40;;
66826;SDS011;53727;45.242;19.796;2022-09-09T10:19:19;3.35;;;0.43;;
66826;SDS011;53727;45.242;19.796;2022-09-09T10:32:49;4.50;;;0.60;;
66826;SDS011;53727;45.242;19.796;2022-09-09T10:35:35;1.58;;;0.63;;
66826;SDS011;53727;45.242;19.796;2022-09-09T10:46:19;0.70;;;0.50;;
66826;SDS011;53727;45.242;19.796;2022-09-09T10:52:00;0.50;;;0.35;;
66826;SDS011;53727;45.242;19.796;2022-09-09T10:57:43;0.77;;;0.47;;
66826;SDS011;53727;45.242;19.796;2022-09-09T11:02:53;1.20;;;0.50;;
66826;SDS011;53727;45.242;19.796;2022-09-09T11:08:04;1.60;;;0.83;;
66826;SDS011;53727;45.242;19.796;2022-09-09T11:10:40;1.17;;;0.70;;
66826;SDS011;53727;45.242;19.796;2022-09-09T11:13:35;0.88;;;0.40;;
66826;SDS011;53727;45.242;19.796;2022-09-09T11:16:22;0.88;;;0.52;;
66826;SDS011;53727;45.242;19.796;2022-09-09T11:19:12;1.98;;;0.60;;
66826;SDS011;53727;45.242;19.796;2022-09-09T11:21:55;1.48;;;0.77;;
66826;SDS011;53727;45.242;19.796;2022-09-09T11:24:28;1.23;;;0.80;;
66826;SDS011;53727;45.242;19.796;2022-09-09T11:32:40;1.45;;;0.77;;
66826;SDS011;53727;45.242;19.796;2022-09-09T11:40:56;1.23;;;0.50;;
66826;SDS011;53727;45.242;19.796;2022-09-09T11:43:32;1.80;;;0.98;;
66826;SDS011;53727;45.242;19.796;2022-09-09T11:46:04;0.95;;;0.57;;
66826;SDS011;53727;45.242;19.796;2022-09-09T11:48:33;1.77;;;0.93;;
66826;SDS011;53727;45.242;19.796;2022-09-09T11:53:56;0.63;;;0.38;;
66826;SDS011;53727;45.242;19.796;2022-09-09T11:56:29;1.08;;;0.50;;
66826;SDS011;53727;45.242;19.796;2022-09-09T11:59:25;2.10;;;1.10;;
66826;SDS011;53727;45.242;19.796;2022-09-09T12:06:54;0.77;;;0.30;;
66826;SDS011;53727;45.242;19.796;2022-09-09T12:17:25;0.70;;;0.40;;
66826;SDS011;53727;45.242;19.796;2022-09-09T12:20:13;0.70;;;0.50;;
66826;SDS011;53727;45.242;19.796;2022-09-09T12:22:55;0.47;;;0.40;;
66826;SDS011;53727;45.242;19.796;2022-09-09T12:28:17;0.60;;;0.60;;
66826;SDS011;53727;45.242;19.796;2022-09-09T12:33:36;0.95;;;0.52;;
66826;SDS011;53727;45.242;19.796;2022-09-09T12:36:05;0.70;;;0.40;;
66826;SDS011;53727;45.242;19.796;2022-09-09T12:38:38;1.02;;;0.50;;
66826;SDS011;53727;45.242;19.796;2022-09-09T12:41:06;0.63;;;0.32;;
66826;SDS011;53727;45.242;19.796;2022-09-09T12:43:50;0.38;;;0.30;;
66826;SDS011;53727;45.242;19.796;2022-09-09T12:46:34;2.10;;;0.55;;
66826;SDS011;53727;45.242;19.796;2022-09-09T12:49:05;0.70;;;0.40;;
66826;SDS011;53727;45.242;19.796;2022-09-09T12:51:49;0.65;;;0.30;;
66826;SDS011;53727;45.242;19.796;2022-09-09T12:54:15;0.43;;;0.28;;
66826;SDS011;53727;45.242;19.796;2022-09-09T12:56:45;0.20;;;0.20;;
66826;SDS011;53727;45.242;19.796;2022-09-09T12:59:25;0.90;;;0.40;;
66826;SDS011;53727;45.242;19.796;2022-09-09T13:02:00;0.40;;;0.20;;
66826;SDS011;53727;45.242;19.796;2022-09-09T13:04:25;0.20;;;0.20;;
66826;SDS011;53727;45.242;19.796;2022-09-09T13:06:51;0.40;;;0.30;;
66826;SDS011;53727;45.242;19.796;2022-09-09T13:09:17;0.90;;;0.35;;
66826;SDS011;53727;45.242;19.796;2022-09-09T13:11:46;0.40;;;0.20;;
66826;SDS011;53727;45.242;19.796;2022-09-09T13:14:16;0.45;;;0.30;;
66826;SDS011;53727;45.242;19.796;2022-09-09T13:16:54;0.35;;;0.20;;
66826;SDS011;53727;45.242;19.796;2022-09-09T13:19:21;0.82;;;0.40;;
66826;SDS011;53727;45.242;19.796;2022-09-09T13:21:50;1.45;;;0.17;;
66826;SDS011;53727;45.242;19.796;2022-09-09T13:24:30;0.57;;;0.30;;
66826;SDS011;53727;45.242;19.796;2022-09-09T13:27:02;0.30;;;0.30;;
66826;SDS011;53727;45.242;19.796;2022-09-09T13:29:30;0.90;;;0.43;;
66826;SDS011;53727;45.242;19.796;2022-09-09T13:32:12;0.65;;;0.28;;
66826;SDS011;53727;45.242;19.796;2022-09-09T13:34:50;0.80;;;0.45;;
66826;SDS011;53727;45.242;19.796;2022-09-09T13:37:22;1.90;;;0.43;;
66826;SDS011;53727;45.242;19.796;2022-09-09T13:39:55;0.68;;;0.40;;
66826;SDS011;53727;45.242;19.796;2022-09-09T13:42:22;1.30;;;0.50;;
66826;SDS011;53727;45.242;19.796;2022-09-09T13:44:53;0.70;;;0.40;;
66826;SDS011;53727;45.242;19.796;2022-09-09T13:47:22;2.97;;;0.52;;
66826;SDS011;53727;45.242;19.796;2022-09-09T13:50:44;0.70;;;0.22;;
66826;SDS011;53727;45.242;19.796;2022-09-09T13:52:46;0.57;;;0.28;;
66826;SDS011;53727;45.242;19.796;2022-09-09T13:55:12;0.80;;;0.57;;
66826;SDS011;53727;45.242;19.796;2022-09-09T13:57:38;1.73;;;0.50;;
66826;SDS011;53727;45.242;19.796;2022-09-09T14:00:04;0.60;;;0.40;;
66826;SDS011;53727;45.242;19.796;2022-09-09T14:02:33;0.68;;;0.30;;
66826;SDS011;53727;45.242;19.796;2022-09-09T14:04:59;5.05;;;0.45;;
66826;SDS011;53727;45.242;19.796;2022-09-09T14:07:25;0.55;;;0.30;;
66826;SDS011;53727;45.242;19.796;2022-09-09T14:09:50;0.47;;;0.40;;
66826;SDS011;53727;45.242;19.796;2022-09-09T14:12:17;0.50;;;0.47;;
66826;SDS011;53727;45.242;19.796;2022-09-09T14:14:43;0.68;;;0.47;;
66826;SDS011;53727;45.242;19.796;2022-09-09T14:17:09;0.35;;;0.20;;
66826;SDS011;53727;45.242;19.796;2022-09-09T14:19:35;0.70;;;0.47;;
66826;SDS011;53727;45.242;19.796;2022-09-09T14:22:02;0.63;;;0.30;;
66826;SDS011;53727;45.242;19.796;2022-09-09T14:24:28;0.50;;;0.30;;
66826;SDS011;53727;45.242;19.796;2022-09-09T14:26:54;0.40;;;0.22;;
66826;SDS011;53727;45.242;19.796;2022-09-09T14:29:19;0.68;;;0.40;;
66826;SDS011;53727;45.242;19.796;2022-09-09T14:31:45;0.75;;;0.20;;
66826;SDS011;53727;45.242;19.796;2022-09-09T14:34:11;0.88;;;0.38;;
66826;SDS011;53727;45.242;19.796;2022-09-09T14:36:39;0.63;;;0.40;;
66826;SDS011;53727;45.242;19.796;2022-09-09T14:39:05;0.70;;;0.35;;
66826;SDS011;53727;45.242;19.796;2022-09-09T14:41:31;0.40;;;0.30;;
66826;SDS011;53727;45.242;19.796;2022-09-09T14:43:57;0.73;;;0.45;;
66826;SDS011;53727;45.242;19.796;2022-09-09T14:46:22;1.88;;;0.40;;
66826;SDS011;53727;45.242;19.796;2022-09-09T14:48:48;2.53;;;0.60;;
66826;SDS011;53727;45.242;19.796;2022-09-09T14:51:18;1.58;;;0.55;;
66826;SDS011;53727;45.242;19.796;2022-09-09T14:53:47;0.40;;;0.30;;
66826;SDS011;53727;45.242;19.796;2022-09-09T14:56:14;1.05;;;0.50;;
66826;SDS011;53727;45.242;19.796;2022-09-09T14:58:42;0.57;;;0.22;;
66826;SDS011;53727;45.242;19.796;2022-09-09T15:01:10;1.45;;;0.47;;
66826;SDS011;53727;45.242;19.796;2022-09-09T15:03:37;1.13;;;0.77;;
66826;SDS011;53727;45.242;19.796;2022-09-09T15:06:05;3.83;;;0.40;;
66826;SDS011;53727;45.242;19.796;2022-09-09T15:08:36;0.45;;;0.43;;
66826;SDS011;53727;45.242;19.796;2022-09-09T15:11:02;0.77;;;0.47;;
66826;SDS011;53727;45.242;19.796;2022-09-09T15:13:30;0.30;;;0.30;;
66826;SDS011;53727;45.242;19.796;2022-09-09T15:15:55;0.60;;;0.50;;
66826;SDS011;53727;45.242;19.796;2022-09-09T15:18:23;0.43;;;0.32;;
66826;SDS011;53727;45.242;19.796;2022-09-09T15:20:48;0.60;;;0.50;;
66826;SDS011;53727;45.242;19.796;2022-09-09T15:23:14;0.40;;;0.30;;
66826;SDS011;53727;45.242;19.796;2022-09-09T15:25:54;1.00;;;0.47;;
66826;SDS011;53727;45.242;19.796;2022-09-09T15:28:21;0.85;;;0.50;;
66826;SDS011;53727;45.242;19.796;2022-09-09T15:30:48;0.50;;;0.47;;
66826;SDS011;53727;45.242;19.796;2022-09-09T15:33:16;0.98;;;0.57;;
66826;SDS011;53727;45.242;19.796;2022-09-09T15:35:42;1.48;;;0.57;;
66826;SDS011;53727;45.242;19.796;2022-09-09T15:38:08;0.50;;;0.35;;
66826;SDS011;53727;45.242;19.796;2022-09-09T15:40:34;0.60;;;0.40;;
66826;SDS011;53727;45.242;19.796;2022-09-09T15:43:00;1.00;;;0.60;;
66826;SDS011;53727;45.242;19.796;2022-09-09T15:45:30;1.00;;;0.60;;
66826;SDS011;53727;45.242;19.796;2022-09-09T15:47:57;2.20;;;0.40;;
66826;SDS011;53727;45.242;19.796;2022-09-09T15:50:23;0.57;;;0.32;;
66826;SDS011;53727;45.242;19.796;2022-09-09T15:52:48;0.68;;;0.32;;
66826;SDS011;53727;45.242;19.796;2022-09-09T15:55:14;0.60;;;0.43;;
66826;SDS011;53727;45.242;19.796;2022-09-09T15:57:40;0.63;;;0.32;;
66826;SDS011;53727;45.242;19.796;2022-09-09T16:00:06;0.70;;;0.40;;
66826;SDS011;53727;45.242;19.796;2022-09-09T16:02:32;2.03;;;0.85;;
66826;SDS011;53727;45.242;19.796;2022-09-09T16:04:58;0.43;;;0.40;;
66826;SDS011;53727;45.242;19.796;2022-09-09T16:07:26;0.82;;;0.65;;
66826;SDS011;53727;45.242;19.796;2022-09-09T16:09:51;0.63;;;0.35;;
66826;SDS011;53727;45.242;19.796;2022-09-09T16:12:17;1.38;;;0.47;;
66826;SDS011;53727;45.242;19.796;2022-09-09T16:14:43;0.90;;;0.57;;
66826;SDS011;53727;45.242;19.796;2022-09-09T16:17:10;0.65;;;0.50;;
66826;SDS011;53727;45.242;19.796;2022-09-09T16:19:36;1.27;;;0.65;;
66826;SDS011;53727;45.242;19.796;2022-09-09T16:22:03;1.48;;;0.60;;
66826;SDS011;53727;45.242;19.796;2022-09-09T16:24:29;1.23;;;0.82;;
66826;SDS011;53727;45.242;19.796;2022-09-09T16:26:55;0.82;;;0.40;;
66826;SDS011;53727;45.242;19.796;2022-09-09T16:29:21;2.53;;;0.88;;
66826;SDS011;53727;45.242;19.796;2022-09-09T16:31:49;1.10;;;0.70;;
66826;SDS011;53727;45.242;19.796;2022-09-09T16:34:15;1.60;;;1.00;;
66826;SDS011;53727;45.242;19.796;2022-09-09T16:36:42;3.25;;;0.80;;
66826;SDS011;53727;45.242;19.796;2022-09-09T16:39:16;1.95;;;1.08;;
66826;SDS011;53727;45.242;19.796;2022-09-09T16:41:43;1.98;;;0.80;;
66826;SDS011;53727;45.242;19.796;2022-09-09T16:44:11;1.08;;;0.70;;
66826;SDS011;53727;45.242;19.796;2022-09-09T16:46:38;1.73;;;1.02;;
66826;SDS011;53727;45.242;19.796;2022-09-09T16:49:10;3.60;;;1.40;;
66826;SDS011;53727;45.242;19.796;2022-09-09T16:51:41;2.85;;;1.27;;
66826;SDS011;53727;45.242;19.796;2022-09-09T16:54:08;2.00;;;1.33;;
66826;SDS011;53727;45.242;19.796;2022-09-09T16:56:37;2.15;;;1.45;;
66826;SDS011;53727;45.242;19.796;2022-09-09T16:59:07;2.00;;;1.23;;
66826;SDS011;53727;45.242;19.796;2022-09-09T17:01:36;8.52;;;1.60;;
66826;SDS011;53727;45.242;19.796;2022-09-09T17:04:04;2.50;;;1.23;;
66826;SDS011;53727;45.242;19.796;2022-09-09T17:06:32;1.13;;;0.93;;
66826;SDS011;53727;45.242;19.796;2022-09-09T17:09:07;2.15;;;1.20;;
66826;SDS011;53727;45.242;19.796;2022-09-09T17:11:35;2.28;;;1.20;;
66826;SDS011;53727;45.242;19.796;2022-09-09T17:14:02;4.38;;;1.10;;
66826;SDS011;53727;45.242;19.796;2022-09-09T17:16:29;4.53;;;1.40;;
66826;SDS011;53727;45.242;19.796;2022-09-09T17:18:56;1.65;;;1.20;;
66826;SDS011;53727;45.242;19.796;2022-09-09T17:21:24;1.83;;;1.20;;
66826;SDS011;53727;45.242;19.796;2022-09-09T17:23:51;1.42;;;0.90;;
66826;SDS011;53727;45.242;19.796;2022-09-09T17:26:18;3.30;;;1.13;;